Preview of NWS' New Version of Forecast
This preview is not operational and should not be used for support decisions.

Terminal Aerodrome Forecast (TAF)

Issued by National Weather Service (NWS)

                            
000
FTUS42 KKEY 160001 AAA
TAFEYW
TAF AMD
KEYW 160001Z 1600/1624 34012G18KT P6SM SCT030
      TEMPO 1600/1603 BKN028
     FM160300 36010KT P6SM SCT030
     FM161400 02010KT P6SM FEW030=